sensor_id;sensor_type;location;lat;lon;timestamp;pressure;altitude;pressure_sealevel;temperature;humidity
76973;BME280;65907;53.640;10.050;2023-04-06T00:01:25;101341.22;;;17.61;32.19
76973;BME280;65907;53.640;10.050;2023-04-06T00:03:53;101334.03;;;17.66;32.07
76973;BME280;65907;53.640;10.050;2023-04-06T00:06:21;101340.22;;;17.63;32.06
76973;BME280;65907;53.640;10.050;2023-04-06T00:08:46;101336.31;;;17.56;32.35
76973;BME280;65907;53.640;10.050;2023-04-06T00:11:12;101340.22;;;17.63;32.25
76973;BME280;65907;53.640;10.050;2023-04-06T00:13:37;101334.38;;;17.74;31.95
76973;BME280;65907;53.640;10.050;2023-04-06T00:16:03;101330.47;;;17.53;32.23
76973;BME280;65907;53.640;10.050;2023-04-06T00:18:30;101336.13;;;17.59;32.26
76973;BME280;65907;53.640;10.050;2023-04-06T00:20:55;101323.13;;;17.59;32.14
76973;BME280;65907;53.640;10.050;2023-04-06T00:23:20;101323.69;;;17.65;32.02
76973;BME280;65907;53.640;10.050;2023-04-06T00:25:45;101329.16;;;17.60;32.33
76973;BME280;65907;53.640;10.050;2023-04-06T00:28:11;101316.44;;;17.70;31.99
76973;BME280;65907;53.640;10.050;2023-04-06T00:30:36;101319.34;;;17.65;32.00
76973;BME280;65907;53.640;10.050;2023-04-06T00:33:01;101318.50;;;17.65;32.01
76973;BME280;65907;53.640;10.050;2023-04-06T00:35:26;101318.88;;;17.58;32.14
76973;BME280;65907;53.640;10.050;2023-04-06T00:37:52;101316.25;;;17.58;32.23
76973;BME280;65907;53.640;10.050;2023-04-06T00:40:17;101310.31;;;17.56;32.08
76973;BME280;65907;53.640;10.050;2023-04-06T00:42:43;101313.38;;;17.63;32.15
76973;BME280;65907;53.640;10.050;2023-04-06T00:45:09;101315.16;;;17.62;31.70
76973;BME280;65907;53.640;10.050;2023-04-06T00:47:34;101316.59;;;17.52;32.01
76973;BME280;65907;53.640;10.050;2023-04-06T00:49:59;101310.50;;;17.53;32.17
76973;BME280;65907;53.640;10.050;2023-04-06T00:52:25;101310.31;;;17.56;32.21
76973;BME280;65907;53.640;10.050;2023-04-06T00:54:50;101306.06;;;17.55;32.01
76973;BME280;65907;53.640;10.050;2023-04-06T00:57:16;101301.78;;;17.69;31.98
76973;BME280;65907;53.640;10.050;2023-04-06T00:59:41;101298.13;;;17.57;32.08
76973;BME280;65907;53.640;10.050;2023-04-06T01:02:09;101303.81;;;17.63;32.02
76973;BME280;65907;53.640;10.050;2023-04-06T01:04:35;101299.06;;;17.56;32.11
76973;BME280;65907;53.640;10.050;2023-04-06T01:07:00;101291.00;;;17.60;32.19
76973;BME280;65907;53.640;10.050;2023-04-06T01:09:29;101290.25;;;17.58;32.04
76973;BME280;65907;53.640;10.050;2023-04-06T01:11:57;101286.00;;;17.57;31.96
76973;BME280;65907;53.640;10.050;2023-04-06T01:14:23;101287.63;;;17.44;32.35
76973;BME280;65907;53.640;10.050;2023-04-06T01:16:51;101279.66;;;17.47;32.14
76973;BME280;65907;53.640;10.050;2023-04-06T01:19:19;101276.34;;;17.59;31.91
76973;BME280;65907;53.640;10.050;2023-04-06T01:21:46;101276.03;;;17.49;32.19
76973;BME280;65907;53.640;10.050;2023-04-06T01:24:11;101283.75;;;17.66;32.02
76973;BME280;65907;53.640;10.050;2023-04-06T01:26:37;101282.66;;;17.55;32.21
76973;BME280;65907;53.640;10.050;2023-04-06T01:29:02;101285.03;;;17.73;31.65
76973;BME280;65907;53.640;10.050;2023-04-06T01:31:29;101283.19;;;17.60;31.90
76973;BME280;65907;53.640;10.050;2023-04-06T01:33:54;101275.66;;;17.56;31.81
76973;BME280;65907;53.640;10.050;2023-04-06T01:36:20;101278.94;;;17.59;31.98
76973;BME280;65907;53.640;10.050;2023-04-06T01:38:48;101282.91;;;17.51;32.01
76973;BME280;65907;53.640;10.050;2023-04-06T01:41:13;101279.66;;;17.47;31.99
76973;BME280;65907;53.640;10.050;2023-04-06T01:43:39;101275.50;;;17.44;32.27
76973;BME280;65907;53.640;10.050;2023-04-06T01:46:04;101276.59;;;17.55;31.82
76973;BME280;65907;53.640;10.050;2023-04-06T01:48:30;101279.31;;;17.53;31.94
76973;BME280;65907;53.640;10.050;2023-04-06T01:50:55;101276.88;;;17.50;32.06
76973;BME280;65907;53.640;10.050;2023-04-06T01:53:23;101275.19;;;17.49;31.94
76973;BME280;65907;53.640;10.050;2023-04-06T01:55:51;101273.16;;;17.54;32.06
76973;BME280;65907;53.640;10.050;2023-04-06T01:58:16;101278.53;;;17.51;32.19
76973;BME280;65907;53.640;10.050;2023-04-06T02:00:41;101272.69;;;17.47;32.20
76973;BME280;65907;53.640;10.050;2023-04-06T02:03:06;101271.88;;;17.61;31.89
76973;BME280;65907;53.640;10.050;2023-04-06T02:05:35;101270.91;;;17.48;32.27
76973;BME280;65907;53.640;10.050;2023-04-06T02:08:06;101274.75;;;17.57;31.91
76973;BME280;65907;53.640;10.050;2023-04-06T02:10:32;101275.19;;;17.49;32.18
76973;BME280;65907;53.640;10.050;2023-04-06T02:12:57;101269.06;;;17.50;31.89
76973;BME280;65907;53.640;10.050;2023-04-06T02:15:24;101267.56;;;17.46;31.98
76973;BME280;65907;53.640;10.050;2023-04-06T02:17:49;101264.97;;;17.46;31.84
76973;BME280;65907;53.640;10.050;2023-04-06T02:20:14;101260.63;;;17.46;32.22
76973;BME280;65907;53.640;10.050;2023-04-06T02:22:39;101252.44;;;17.38;32.12
76973;BME280;65907;53.640;10.050;2023-04-06T02:25:05;101255.72;;;17.56;31.94
76973;BME280;65907;53.640;10.050;2023-04-06T02:27:30;101258.13;;;17.59;31.80
76973;BME280;65907;53.640;10.050;2023-04-06T02:29:56;101257.38;;;17.57;31.79
76973;BME280;65907;53.640;10.050;2023-04-06T02:32:21;101259.97;;;17.57;31.90
76973;BME280;65907;53.640;10.050;2023-04-06T02:34:46;101257.38;;;17.43;31.99
76973;BME280;65907;53.640;10.050;2023-04-06T02:37:14;101250.03;;;17.49;31.88
76973;BME280;65907;53.640;10.050;2023-04-06T02:39:40;101243.53;;;17.57;31.71
76973;BME280;65907;53.640;10.050;2023-04-06T02:42:06;101254.78;;;17.57;31.92
76973;BME280;65907;53.640;10.050;2023-04-06T02:44:31;101252.19;;;17.57;31.74
76973;BME280;65907;53.640;10.050;2023-04-06T02:46:56;101244.94;;;17.62;31.57
76973;BME280;65907;53.640;10.050;2023-04-06T02:49:22;101251.53;;;17.54;32.03
76973;BME280;65907;53.640;10.050;2023-04-06T02:51:49;101250.31;;;17.45;31.85
76973;BME280;65907;53.640;10.050;2023-04-06T02:54:17;101247.63;;;17.46;32.07
76973;BME280;65907;53.640;10.050;2023-04-06T02:56:43;101249.19;;;17.49;31.87
76973;BME280;65907;53.640;10.050;2023-04-06T02:59:08;101245.09;;;17.45;31.90
76973;BME280;65907;53.640;10.050;2023-04-06T03:01:36;101238.97;;;17.46;31.89
76973;BME280;65907;53.640;10.050;2023-04-06T03:04:01;101239.63;;;17.49;31.70
76973;BME280;65907;53.640;10.050;2023-04-06T03:06:26;101247.81;;;17.43;32.09
76973;BME280;65907;53.640;10.050;2023-04-06T03:08:51;101243.44;;;17.44;31.83
76973;BME280;65907;53.640;10.050;2023-04-06T03:11:17;101246.03;;;17.44;32.10
76973;BME280;65907;53.640;10.050;2023-04-06T03:13:42;101237.22;;;17.46;31.88
76973;BME280;65907;53.640;10.050;2023-04-06T03:16:09;101236.00;;;17.38;32.22
76973;BME280;65907;53.640;10.050;2023-04-06T03:18:35;101237.84;;;17.50;31.65
76973;BME280;65907;53.640;10.050;2023-04-06T03:21:03;101235.16;;;17.37;31.93
76973;BME280;65907;53.640;10.050;2023-04-06T03:23:28;101226.53;;;17.37;31.89
76973;BME280;65907;53.640;10.050;2023-04-06T03:25:56;101231.94;;;17.33;32.25
76973;BME280;65907;53.640;10.050;2023-04-06T03:28:21;101237.41;;;17.43;31.98
76973;BME280;65907;53.640;10.050;2023-04-06T03:30:47;101235.81;;;17.41;31.88
76973;BME280;65907;53.640;10.050;2023-04-06T03:33:14;101239.34;;;17.40;32.10
76973;BME280;65907;53.640;10.050;2023-04-06T03:35:40;101236.75;;;17.40;32.15
76973;BME280;65907;53.640;10.050;2023-04-06T03:38:05;101241.03;;;17.41;31.96
76973;BME280;65907;53.640;10.050;2023-04-06T03:40:33;101234.34;;;17.37;31.86
76973;BME280;65907;53.640;10.050;2023-04-06T03:42:58;101235.38;;;17.48;31.57
76973;BME280;65907;53.640;10.050;2023-04-06T03:45:28;101237.97;;;17.48;31.86
76973;BME280;65907;53.640;10.050;2023-04-06T03:47:54;101231.44;;;17.41;31.71
76973;BME280;65907;53.640;10.050;2023-04-06T03:50:19;101244.28;;;17.44;31.94
76973;BME280;65907;53.640;10.050;2023-04-06T03:52:44;101238.50;;;17.39;31.82
76973;BME280;65907;53.640;10.050;2023-04-06T03:55:12;101242.22;;;17.35;32.18
76973;BME280;65907;53.640;10.050;2023-04-06T03:57:37;101245.22;;;17.43;32.05
76973;BME280;65907;53.640;10.050;2023-04-06T04:00:03;101245.22;;;17.43;31.71
76973;BME280;65907;53.640;10.050;2023-04-06T04:02:28;101240.09;;;17.42;31.97
76973;BME280;65907;53.640;10.050;2023-04-06T04:04:54;101242.88;;;17.39;32.07
76973;BME280;65907;53.640;10.050;2023-04-06T04:07:19;101241.84;;;17.41;31.79
76973;BME280;65907;53.640;10.050;2023-04-06T04:09:45;101246.97;;;17.43;32.15
76973;BME280;65907;53.640;10.050;2023-04-06T04:12:10;101240.66;;;17.32;31.74
76973;BME280;65907;53.640;10.050;2023-04-06T04:14:35;101246.59;;;17.34;32.17
76973;BME280;65907;53.640;10.050;2023-04-06T04:17:00;101239.25;;;17.41;32.03
76973;BME280;65907;53.640;10.050;2023-04-06T04:19:25;101247.41;;;17.35;32.16
76973;BME280;65907;53.640;10.050;2023-04-06T04:21:51;101245.66;;;17.36;32.13
76973;BME280;65907;53.640;10.050;2023-04-06T04:24:18;101249.75;;;17.40;31.66
76973;BME280;65907;53.640;10.050;2023-04-06T04:26:43;101246.88;;;17.44;31.53
76973;BME280;65907;53.640;10.050;2023-04-06T04:29:10;101248.28;;;17.36;32.11
76973;BME280;65907;53.640;10.050;2023-04-06T04:31:35;101240.00;;;17.29;31.91
76973;BME280;65907;53.640;10.050;2023-04-06T04:34:00;101241.84;;;17.41;31.75
76973;BME280;65907;53.640;10.050;2023-04-06T04:36:26;101243.06;;;17.36;31.82
76973;BME280;65907;53.640;10.050;2023-04-06T04:38:51;101245.94;;;17.31;31.81
76973;BME280;65907;53.640;10.050;2023-04-06T04:41:19;101244.19;;;17.31;32.02
76973;BME280;65907;53.640;10.050;2023-04-06T04:43:49;101245.75;;;17.34;31.98
76973;BME280;65907;53.640;10.050;2023-04-06T04:46:15;101243.06;;;17.36;31.92
76973;BME280;65907;53.640;10.050;2023-04-06T04:48:41;101241.75;;;17.28;31.77
76973;BME280;65907;53.640;10.050;2023-04-06T04:51:06;101241.22;;;17.38;31.69
76973;BME280;65907;53.640;10.050;2023-04-06T04:53:31;101239.72;;;17.33;31.83
76973;BME280;65907;53.640;10.050;2023-04-06T04:55:56;101243.25;;;17.32;31.74
76973;BME280;65907;53.640;10.050;2023-04-06T04:58:22;101242.50;;;17.30;31.91
76973;BME280;65907;53.640;10.050;2023-04-06T05:00:47;101239.91;;;17.30;31.88
76973;BME280;65907;53.640;10.050;2023-04-06T05:03:14;101237.13;;;17.33;32.12
76973;BME280;65907;53.640;10.050;2023-04-06T05:05:41;101235.28;;;17.36;31.62
76973;BME280;65907;53.640;10.050;2023-04-06T05:08:06;101235.53;;;17.31;31.70
76973;BME280;65907;53.640;10.050;2023-04-06T05:10:31;101243.16;;;17.34;31.70
76973;BME280;65907;53.640;10.050;2023-04-06T05:12:59;101245.56;;;17.37;31.74
76973;BME280;65907;53.640;10.050;2023-04-06T05:15:24;101237.47;;;17.27;31.77
76973;BME280;65907;53.640;10.050;2023-04-06T05:17:53;101240.47;;;17.36;31.82
76973;BME280;65907;53.640;10.050;2023-04-06T05:20:20;101240.72;;;17.31;31.83
76973;BME280;65907;53.640;10.050;2023-04-06T05:22:46;101244.19;;;17.31;31.69
76973;BME280;65907;53.640;10.050;2023-04-06T05:25:12;101239.91;;;17.30;31.62
76973;BME280;65907;53.640;10.050;2023-04-06T05:27:37;101237.94;;;17.34;31.68
76973;BME280;65907;53.640;10.050;2023-04-06T05:30:06;101233.97;;;17.43;31.72
76973;BME280;65907;53.640;10.050;2023-04-06T05:32:32;101236.50;;;17.44;31.64
76973;BME280;65907;53.640;10.050;2023-04-06T05:34:57;101238.06;;;17.32;31.63
76973;BME280;65907;53.640;10.050;2023-04-06T05:37:22;101229.69;;;17.42;31.52
76973;BME280;65907;53.640;10.050;2023-04-06T05:39:48;101231.19;;;17.31;31.78
76973;BME280;65907;53.640;10.050;2023-04-06T05:42:15;101229.88;;;17.39;31.79
76973;BME280;65907;53.640;10.050;2023-04-06T05:44:41;101232.38;;;17.26;31.87
76973;BME280;65907;53.640;10.050;2023-04-06T05:47:07;101233.00;;;17.29;31.65
76973;BME280;65907;53.640;10.050;2023-04-06T05:49:32;101225.81;;;17.34;31.51
76973;BME280;65907;53.640;10.050;2023-04-06T05:51:57;101234.34;;;17.37;31.85
76973;BME280;65907;53.640;10.050;2023-04-06T05:54:22;101233.50;;;17.51;31.45
76973;BME280;65907;53.640;10.050;2023-04-06T05:56:48;101240.31;;;17.53;31.26
76973;BME280;65907;53.640;10.050;2023-04-06T05:59:15;101234.88;;;17.85;30.68
76973;BME280;65907;53.640;10.050;2023-04-06T06:01:43;101237.56;;;17.84;30.69
76973;BME280;65907;53.640;10.050;2023-04-06T06:04:09;101228.00;;;17.84;30.99
76973;BME280;65907;53.640;10.050;2023-04-06T06:06:34;101232.19;;;17.58;31.04
76973;BME280;65907;53.640;10.050;2023-04-06T06:09:00;101232.22;;;17.72;31.22
76973;BME280;65907;53.640;10.050;2023-04-06T06:11:26;101234.72;;;17.59;31.53
76973;BME280;65907;53.640;10.050;2023-04-06T06:13:51;101229.72;;;17.56;31.40
76973;BME280;65907;53.640;10.050;2023-04-06T06:16:17;101230.34;;;17.74;31.53
76973;BME280;65907;53.640;10.050;2023-04-06T06:18:42;101234.34;;;17.80;31.42
76973;BME280;65907;53.640;10.050;2023-04-06T06:21:07;101228.56;;;17.89;31.05
76973;BME280;65907;53.640;10.050;2023-04-06T06:23:32;101236.63;;;18.14;30.71
76973;BME280;65907;53.640;10.050;2023-04-06T06:25:58;101238.25;;;18.29;30.50
76973;BME280;65907;53.640;10.050;2023-04-06T06:28:26;101232.06;;;18.17;30.73
76973;BME280;65907;53.640;10.050;2023-04-06T06:30:51;101232.31;;;18.27;30.26
76973;BME280;65907;53.640;10.050;2023-04-06T06:33:17;101228.09;;;18.12;31.15
76973;BME280;65907;53.640;10.050;2023-04-06T06:35:42;101230.38;;;18.16;31.13
76973;BME280;65907;53.640;10.050;2023-04-06T06:38:10;101238.41;;;17.84;31.76
76973;BME280;65907;53.640;10.050;2023-04-06T06:40:35;101235.34;;;17.77;31.94
76973;BME280;65907;53.640;10.050;2023-04-06T06:43:00;101234.03;;;17.85;31.80
76973;BME280;65907;53.640;10.050;2023-04-06T06:45:25;101235.53;;;17.60;32.28
76973;BME280;65907;53.640;10.050;2023-04-06T06:47:53;101235.47;;;17.61;32.09
76973;BME280;65907;53.640;10.050;2023-04-06T06:50:18;101235.06;;;17.82;31.55
76973;BME280;65907;53.640;10.050;2023-04-06T06:52:44;101242.88;;;17.68;31.81
76973;BME280;65907;53.640;10.050;2023-04-06T06:55:09;101237.00;;;17.93;31.63
76973;BME280;65907;53.640;10.050;2023-04-06T06:57:34;101233.88;;;17.88;31.53
76973;BME280;65907;53.640;10.050;2023-04-06T07:00:00;101227.50;;;18.21;31.27
76973;BME280;65907;53.640;10.050;2023-04-06T07:02:26;101230.75;;;18.25;31.07
76973;BME280;65907;53.640;10.050;2023-04-06T07:04:53;101234.97;;;18.40;31.00
76973;BME280;65907;53.640;10.050;2023-04-06T07:07:18;101227.72;;;18.45;30.84
76973;BME280;65907;53.640;10.050;2023-04-06T07:09:44;101225.44;;;18.54;30.53
76973;BME280;65907;53.640;10.050;2023-04-06T07:12:09;101219.38;;;18.53;30.69
76973;BME280;65907;53.640;10.050;2023-04-06T07:14:35;101226.91;;;18.58;30.86
76973;BME280;65907;53.640;10.050;2023-04-06T07:17:01;101214.53;;;18.61;30.51
76973;BME280;65907;53.640;10.050;2023-04-06T07:19:27;101216.72;;;18.68;30.49
76973;BME280;65907;53.640;10.050;2023-04-06T07:21:52;101220.53;;;18.62;30.65
76973;BME280;65907;53.640;10.050;2023-04-06T07:24:17;101219.31;;;18.68;30.70
76973;BME280;65907;53.640;10.050;2023-04-06T07:26:44;101225.97;;;18.59;30.61
76973;BME280;65907;53.640;10.050;2023-04-06T07:29:09;101220.66;;;18.60;30.64
76973;BME280;65907;53.640;10.050;2023-04-06T07:31:37;101223.06;;;18.63;30.54
76973;BME280;65907;53.640;10.050;2023-04-06T07:34:02;101219.09;;;18.71;30.66
76973;BME280;65907;53.640;10.050;2023-04-06T07:36:28;101221.84;;;18.69;30.52
76973;BME280;65907;53.640;10.050;2023-04-06T07:38:56;101219.09;;;18.58;30.80
76973;BME280;65907;53.640;10.050;2023-04-06T07:41:21;101220.25;;;18.67;30.65
76973;BME280;65907;53.640;10.050;2023-04-06T07:43:46;101222.34;;;18.61;31.00
76973;BME280;65907;53.640;10.050;2023-04-06T07:46:14;101221.13;;;18.80;30.63
76973;BME280;65907;53.640;10.050;2023-04-06T07:48:39;101219.97;;;18.71;30.64
76973;BME280;65907;53.640;10.050;2023-04-06T07:51:04;101222.16;;;18.77;30.61
76973;BME280;65907;53.640;10.050;2023-04-06T07:53:31;101223.63;;;18.82;30.78
76973;BME280;65907;53.640;10.050;2023-04-06T07:55:57;101221.75;;;18.84;30.66
76973;BME280;65907;53.640;10.050;2023-04-06T07:58:23;101220.09;;;18.96;30.62
76973;BME280;65907;53.640;10.050;2023-04-06T08:00:48;101219.13;;;18.84;30.51
76973;BME280;65907;53.640;10.050;2023-04-06T08:03:13;101228.63;;;18.85;30.77
76973;BME280;65907;53.640;10.050;2023-04-06T08:05:38;101218.84;;;18.88;30.76
76973;BME280;65907;53.640;10.050;2023-04-06T08:08:04;101227.91;;;18.96;30.67
76973;BME280;65907;53.640;10.050;2023-04-06T08:10:29;101222.81;;;18.94;30.62
76973;BME280;65907;53.640;10.050;2023-04-06T08:12:54;101230.00;;;18.90;30.49
76973;BME280;65907;53.640;10.050;2023-04-06T08:15:20;101228.75;;;18.96;30.55
76973;BME280;65907;53.640;10.050;2023-04-06T08:17:45;101231.19;;;18.99;30.70
76973;BME280;65907;53.640;10.050;2023-04-06T08:20:12;101225.13;;;18.99;30.65
76973;BME280;65907;53.640;10.050;2023-04-06T08:22:39;101223.41;;;18.98;30.53
76973;BME280;65907;53.640;10.050;2023-04-06T08:25:05;101221.69;;;18.98;30.50
76973;BME280;65907;53.640;10.050;2023-04-06T08:27:30;101212.72;;;19.02;30.28
76973;BME280;65907;53.640;10.050;2023-04-06T08:29:55;101218.66;;;19.04;30.58
76973;BME280;65907;53.640;10.050;2023-04-06T08:32:21;101219.31;;;19.08;30.47
76973;BME280;65907;53.640;10.050;2023-04-06T08:34:46;101222.50;;;18.99;30.67
76973;BME280;65907;53.640;10.050;2023-04-06T08:37:11;101220.47;;;19.04;30.50
76973;BME280;65907;53.640;10.050;2023-04-06T08:39:37;101211.78;;;19.03;30.78
76973;BME280;65907;53.640;10.050;2023-04-06T08:42:02;101212.72;;;19.02;30.38
76973;BME280;65907;53.640;10.050;2023-04-06T08:44:28;101213.25;;;19.08;30.69
76973;BME280;65907;53.640;10.050;2023-04-06T08:46:54;101214.59;;;19.00;30.71
76973;BME280;65907;53.640;10.050;2023-04-06T08:49:22;101208.66;;;18.98;30.95
76973;BME280;65907;53.640;10.050;2023-04-06T08:51:47;101212.19;;;18.97;30.81
76973;BME280;65907;53.640;10.050;2023-04-06T08:54:12;101212.38;;;18.94;30.99
76973;BME280;65907;53.640;10.050;2023-04-06T08:56:40;101210.03;;;19.04;30.67
76973;BME280;65907;53.640;10.050;2023-04-06T08:59:06;101207.50;;;19.02;30.83
76973;BME280;65907;53.640;10.050;2023-04-06T09:01:33;101206.56;;;19.03;30.85
76973;BME280;65907;53.640;10.050;2023-04-06T09:03:59;101211.75;;;18.90;31.06
76973;BME280;65907;53.640;10.050;2023-04-06T09:06:25;101206.13;;;18.97;31.14
76973;BME280;65907;53.640;10.050;2023-04-06T09:08:54;101208.13;;;18.93;31.04
76973;BME280;65907;53.640;10.050;2023-04-06T09:11:20;101200.09;;;18.96;31.15
76973;BME280;65907;53.640;10.050;2023-04-06T09:16:10;101198.75;;;19.03;31.08
76973;BME280;65907;53.640;10.050;2023-04-06T09:18:36;101201.56;;;19.00;31.23
76973;BME280;65907;53.640;10.050;2023-04-06T09:21:01;101206.28;;;19.08;31.08
76973;BME280;65907;53.640;10.050;2023-04-06T09:23:30;101196.44;;;18.99;31.33
76973;BME280;65907;53.640;10.050;2023-04-06T09:26:11;101200.44;;;19.04;31.07
76973;BME280;65907;53.640;10.050;2023-04-06T09:28:49;101198.97;;;19.00;31.21
76973;BME280;65907;53.640;10.050;2023-04-06T09:31:16;101195.69;;;18.97;31.38
76973;BME280;65907;53.640;10.050;2023-04-06T09:33:44;101193.84;;;18.99;31.33
76973;BME280;65907;53.640;10.050;2023-04-06T09:36:12;101194.97;;;18.95;31.23
76973;BME280;65907;53.640;10.050;2023-04-06T09:39:02;101188.97;;;19.07;31.11
76973;BME280;65907;53.640;10.050;2023-04-06T09:41:26;101193.25;;;19.08;31.08
76973;BME280;65907;53.640;10.050;2023-04-06T09:43:52;101188.09;;;18.94;31.64
76973;BME280;65907;53.640;10.050;2023-04-06T09:46:18;101187.81;;;18.98;31.62
76973;BME280;65907;53.640;10.050;2023-04-06T09:48:48;101188.63;;;18.99;31.41
76973;BME280;65907;53.640;10.050;2023-04-06T09:51:14;101183.84;;;19.05;31.04
76973;BME280;65907;53.640;10.050;2023-04-06T09:53:41;101183.97;;;19.04;31.05
76973;BME280;65907;53.640;10.050;2023-04-06T09:56:07;101182.78;;;18.95;31.35
76973;BME280;65907;53.640;10.050;2023-04-06T09:58:38;101186.66;;;19.02;31.27
76973;BME280;65907;53.640;10.050;2023-04-06T10:01:09;101183.22;;;19.02;31.18
76973;BME280;65907;53.640;10.050;2023-04-06T10:06:20;101177.56;;;18.95;31.49
76973;BME280;65907;53.640;10.050;2023-04-06T10:08:49;101173.09;;;18.97;31.75
76973;BME280;65907;53.640;10.050;2023-04-06T10:11:15;101174.03;;;18.96;31.60
76973;BME280;65907;53.640;10.050;2023-04-06T10:13:41;101168.50;;;19.01;31.24
76973;BME280;65907;53.640;10.050;2023-04-06T10:16:07;101173.91;;;18.98;31.38
76973;BME280;65907;53.640;10.050;2023-04-06T10:18:32;101168.69;;;18.98;31.45
76973;BME280;65907;53.640;10.050;2023-04-06T10:26:15;101165.16;;;18.86;31.61
76973;BME280;65907;53.640;10.050;2023-04-06T10:28:42;101161.09;;;18.82;31.89
76973;BME280;65907;53.640;10.050;2023-04-06T10:31:08;101165.88;;;18.88;32.13
76973;BME280;65907;53.640;10.050;2023-04-06T10:33:33;101168.38;;;18.89;32.03
76973;BME280;65907;53.640;10.050;2023-04-06T10:36:44;101169.94;;;18.79;32.28
76973;BME280;65907;53.640;10.050;2023-04-06T10:38:44;101157.75;;;18.80;32.22
76973;BME280;65907;53.640;10.050;2023-04-06T10:41:10;101155.34;;;18.76;32.07
76973;BME280;65907;53.640;10.050;2023-04-06T10:43:37;101164.41;;;18.84;32.05
76973;BME280;65907;53.640;10.050;2023-04-06T10:46:05;101161.00;;;18.83;32.01
76973;BME280;65907;53.640;10.050;2023-04-06T10:48:41;101150.97;;;18.77;31.88
76973;BME280;65907;53.640;10.050;2023-04-06T10:51:07;101149.84;;;18.81;32.06
76973;BME280;65907;53.640;10.050;2023-04-06T10:53:33;101151.09;;;18.75;32.42
76973;BME280;65907;53.640;10.050;2023-04-06T10:55:59;101148.13;;;18.67;32.62
76973;BME280;65907;53.640;10.050;2023-04-06T10:58:25;101144.28;;;18.73;32.05
76973;BME280;65907;53.640;10.050;2023-04-06T11:00:53;101141.09;;;18.69;32.56
76973;BME280;65907;53.640;10.050;2023-04-06T11:03:19;101140.97;;;18.71;32.31
76973;BME280;65907;53.640;10.050;2023-04-06T11:05:45;101138.97;;;18.61;32.57
76973;BME280;65907;53.640;10.050;2023-04-06T11:08:10;101143.25;;;18.62;32.26
76973;BME280;65907;53.640;10.050;2023-04-06T11:10:36;101131.56;;;18.55;32.30
76973;BME280;65907;53.640;10.050;2023-04-06T11:13:03;101139.91;;;18.60;32.33
76973;BME280;65907;53.640;10.050;2023-04-06T11:15:33;101135.22;;;18.53;32.69
76973;BME280;65907;53.640;10.050;2023-04-06T11:17:58;101137.63;;;18.56;32.60
76973;BME280;65907;53.640;10.050;2023-04-06T11:20:28;101134.06;;;18.44;32.59
76973;BME280;65907;53.640;10.050;2023-04-06T11:22:53;101122.28;;;18.51;32.51
76973;BME280;65907;53.640;10.050;2023-04-06T11:25:18;101138.75;;;18.52;32.74
76973;BME280;65907;53.640;10.050;2023-04-06T11:27:46;101134.38;;;18.52;32.73
76973;BME280;65907;53.640;10.050;2023-04-06T11:30:12;101129.06;;;18.54;32.61
76973;BME280;65907;53.640;10.050;2023-04-06T11:32:44;101123.66;;;18.57;32.52
76973;BME280;65907;53.640;10.050;2023-04-06T11:35:23;101124.16;;;18.49;32.69
76973;BME280;65907;53.640;10.050;2023-04-06T11:37:49;101125.94;;;18.48;32.54
76973;BME280;65907;53.640;10.050;2023-04-06T11:40:15;101122.19;;;18.40;32.94
76973;BME280;65907;53.640;10.050;2023-04-06T11:42:40;101113.44;;;18.41;32.72
76973;BME280;65907;53.640;10.050;2023-04-06T11:45:06;101114.81;;;18.46;32.94
76973;BME280;65907;53.640;10.050;2023-04-06T11:47:33;101114.97;;;18.43;32.90
76973;BME280;65907;53.640;10.050;2023-04-06T11:52:32;101116.47;;;18.47;32.70
76973;BME280;65907;53.640;10.050;2023-04-06T11:54:57;101111.25;;;18.47;32.83
76973;BME280;65907;53.640;10.050;2023-04-06T11:57:23;101114.81;;;18.59;32.74
76973;BME280;65907;53.640;10.050;2023-04-06T11:59:52;101111.56;;;18.56;32.42
76973;BME280;65907;53.640;10.050;2023-04-06T12:02:20;101107.38;;;18.53;32.80
76973;BME280;65907;53.640;10.050;2023-04-06T12:04:45;101107.06;;;18.45;33.04
76973;BME280;65907;53.640;10.050;2023-04-06T12:07:11;101104.78;;;18.40;32.66
76973;BME280;65907;53.640;10.050;2023-04-06T12:09:36;101105.41;;;18.44;32.76
76973;BME280;65907;53.640;10.050;2023-04-06T12:12:04;101100.84;;;18.47;32.66
76973;BME280;65907;53.640;10.050;2023-04-06T12:14:29;101087.69;;;18.49;32.58
76973;BME280;65907;53.640;10.050;2023-04-06T12:16:55;101087.59;;;18.38;33.02
76973;BME280;65907;53.640;10.050;2023-04-06T12:19:23;101085.94;;;18.37;32.71
76973;BME280;65907;53.640;10.050;2023-04-06T12:21:51;101090.09;;;18.39;33.05
76973;BME280;65907;53.640;10.050;2023-04-06T12:24:16;101085.09;;;18.36;32.83
76973;BME280;65907;53.640;10.050;2023-04-06T12:26:42;101096.66;;;18.45;32.64
76973;BME280;65907;53.640;10.050;2023-04-06T12:29:07;101083.94;;;18.40;33.00
76973;BME280;65907;53.640;10.050;2023-04-06T12:31:34;101090.72;;;18.43;32.69
76973;BME280;65907;53.640;10.050;2023-04-06T12:34:03;101081.53;;;18.24;33.27
76973;BME280;65907;53.640;10.050;2023-04-06T12:36:28;101075.91;;;18.30;33.20
76973;BME280;65907;53.640;10.050;2023-04-06T12:38:57;101098.25;;;18.47;33.07
76973;BME280;65907;53.640;10.050;2023-04-06T12:41:24;101085.09;;;18.49;32.70
76973;BME280;65907;53.640;10.050;2023-04-06T12:43:49;101081.44;;;18.39;32.86
76973;BME280;65907;53.640;10.050;2023-04-06T12:46:15;101083.31;;;18.37;32.97
76973;BME280;65907;53.640;10.050;2023-04-06T12:48:40;101086.97;;;18.34;32.96